createdAt,value
2023-05-21T00:00:37.590Z,949.1370239
2023-05-21T00:01:39.064Z,949.1906738
2023-05-21T00:02:40.156Z,949.1637573
2023-05-21T00:03:41.274Z,949.093689
2023-05-21T00:04:41.491Z,949.1532593
2023-05-21T00:05:42.912Z,949.1060791
2023-05-21T00:06:44.098Z,949.0943604
2023-05-21T00:07:45.058Z,949.1295166
2023-05-21T00:08:46.058Z,949.1182861
2023-05-21T00:09:47.072Z,949.0967407
2023-05-21T00:10:48.450Z,949.1293945
2023-05-21T00:11:49.546Z,949.0618896
2023-05-21T00:12:50.685Z,949.1260986
2023-05-21T00:13:52.046Z,949.0651855
2023-05-21T00:14:53.047Z,949.0951538
2023-05-21T00:15:54.337Z,949.0684204
2023-05-21T00:16:55.570Z,949.0342407
2023-05-21T00:17:56.696Z,949.0388794
2023-05-21T00:18:57.662Z,949.0479736
2023-05-21T00:19:58.806Z,949.012085
2023-05-21T00:20:59.859Z,949.0365601
2023-05-21T00:22:01.088Z,949.0151367
2023-05-21T00:23:02.072Z,949.0252075
2023-05-21T00:24:03.606Z,949.0031128
2023-05-21T00:25:35.093Z,949.0178223
2023-05-21T00:26:35.808Z,948.9516602
2023-05-21T00:27:36.799Z,948.9526367
2023-05-21T00:28:38.034Z,948.9436035
2023-05-21T00:29:39.035Z,948.9793701
2023-05-21T00:30:40.291Z,948.9533081
2023-05-21T00:31:41.533Z,948.9851685
2023-05-21T00:32:42.789Z,948.9428101
2023-05-21T00:33:43.813Z,948.97052
2023-05-21T00:34:44.793Z,948.9500122
2023-05-21T00:35:45.783Z,948.918457
2023-05-21T00:36:46.841Z,948.9257202
2023-05-21T00:37:48.449Z,948.9393921
2023-05-21T00:38:49.557Z,948.8996582
2023-05-21T00:39:50.542Z,948.8937378
2023-05-21T00:40:51.766Z,948.8792114
2023-05-21T00:41:52.849Z,948.8864136
2023-05-21T00:42:54.304Z,948.8733521
2023-05-21T00:43:55.840Z,948.8571167
2023-05-21T00:44:56.828Z,948.8137207
2023-05-21T00:45:57.795Z,948.8261719
2023-05-21T00:46:58.830Z,948.7991333
2023-05-21T00:48:00.443Z,948.8359375
2023-05-21T00:49:01.798Z,948.8112793
2023-05-21T00:50:33.047Z,948.7640381
2023-05-21T00:51:34.090Z,948.7715454
2023-05-21T00:52:35.554Z,948.7451782
2023-05-21T00:53:36.574Z,948.7103271
2023-05-21T00:54:37.027Z,948.7192383
2023-05-21T00:55:38.487Z,948.7231445
2023-05-21T00:56:39.342Z,948.7492065
2023-05-21T00:57:40.487Z,948.7354736
2023-05-21T00:58:41.822Z,948.7485962
2023-05-21T00:59:42.793Z,948.7893066
2023-05-21T01:00:43.776Z,948.779541
2023-05-21T01:01:44.976Z,948.7460938
2023-05-21T01:02:46.280Z,948.7337646
2023-05-21T01:03:47.625Z,948.7614136
2023-05-21T01:04:48.304Z,948.7027588
2023-05-21T01:05:49.282Z,948.7223511
2023-05-21T01:06:50.349Z,948.7053223
2023-05-21T01:07:51.350Z,948.6676636
2023-05-21T01:08:52.837Z,948.6882324
2023-05-21T01:09:54.281Z,948.7190552
2023-05-21T01:10:55.302Z,948.7295532
2023-05-21T01:11:56.304Z,948.7394409
2023-05-21T01:12:57.291Z,948.7432861
2023-05-21T01:13:58.285Z,948.7352905
2023-05-21T01:14:59.324Z,948.758728
2023-05-21T01:16:00.263Z,948.7457886
2023-05-21T01:17:01.324Z,948.7106323
2023-05-21T01:18:32.799Z,948.7237549
2023-05-21T01:19:33.828Z,948.6983032
2023-05-21T01:20:35.577Z,948.6820068
2023-05-21T01:21:36.539Z,948.6373291
2023-05-21T01:22:37.001Z,948.6331787
2023-05-21T01:23:38.376Z,948.666748
2023-05-21T01:24:39.800Z,948.6348267
2023-05-21T01:25:40.779Z,948.6243896
2023-05-21T01:26:41.785Z,948.6765137
2023-05-21T01:27:42.793Z,948.6853027
2023-05-21T01:28:43.430Z,948.6375122
2023-05-21T01:29:44.863Z,948.6511841
2023-05-21T01:30:46.340Z,948.6534424
2023-05-21T01:31:47.778Z,948.6420898
2023-05-21T01:32:48.850Z,948.6383057
2023-05-21T01:33:49.913Z,948.6578369
2023-05-21T01:34:51.297Z,948.6275024
2023-05-21T01:35:52.301Z,948.6102905
2023-05-21T01:36:53.277Z,948.5907593
2023-05-21T01:37:54.299Z,948.6060791
2023-05-21T01:38:55.293Z,948.600647
2023-05-21T01:39:56.569Z,948.5670166
2023-05-21T01:40:57.843Z,948.5531006
2023-05-21T01:41:59.264Z,948.5603027
2023-05-21T01:43:00.306Z,948.5842285
2023-05-21T01:44:00.708Z,948.5522461
2023-05-21T01:45:02.123Z,948.5300293
2023-05-21T01:46:32.832Z,948.5062256
2023-05-21T01:47:34.575Z,948.5552979
2023-05-21T01:48:35.565Z,948.5334473
2023-05-21T01:49:36.557Z,948.5334473
2023-05-21T01:50:37.040Z,948.5262451
2023-05-21T01:51:38.073Z,948.5203857
2023-05-21T01:52:39.072Z,948.5581055
2023-05-21T01:53:40.084Z,948.4838867
2023-05-21T01:54:41.078Z,948.5123291
2023-05-21T01:55:42.633Z,948.4910889
2023-05-21T01:56:43.599Z,948.5120239
2023-05-21T01:57:44.027Z,948.5111084
2023-05-21T01:58:44.469Z,948.5322876
2023-05-21T01:59:44.924Z,948.4851685
2023-05-21T02:00:45.255Z,948.5340576
2023-05-21T02:01:45.815Z,948.5158691
2023-05-21T02:02:46.847Z,948.5165405
2023-05-21T02:03:47.937Z,948.5287476
2023-05-21T02:04:48.226Z,948.4988403
2023-05-21T02:05:48.668Z,948.4838867
2023-05-21T02:06:49.841Z,948.4611816
2023-05-21T02:07:50.802Z,948.4927979
2023-05-21T02:08:51.816Z,948.4798584
2023-05-21T02:09:52.772Z,948.5108032
2023-05-21T02:10:53.762Z,948.4724121
2023-05-21T02:11:54.829Z,948.4821777
2023-05-21T02:12:55.791Z,948.4568481
2023-05-21T02:13:56.793Z,948.5080566
2023-05-21T02:14:57.816Z,948.4918823
2023-05-21T02:15:58.814Z,948.4926758
2023-05-21T02:16:59.878Z,948.5257568
2023-05-21T02:18:01.188Z,948.572876
2023-05-21T02:19:32.810Z,948.5631104
2023-05-21T02:20:33.767Z,948.5583496
2023-05-21T02:21:34.774Z,948.5158081
2023-05-21T02:22:35.261Z,948.5818481
2023-05-21T02:23:36.587Z,948.5490723
2023-05-21T02:24:37.614Z,948.5474854
2023-05-21T02:25:38.343Z,948.5686035
2023-05-21T02:26:39.063Z,948.5605469
2023-05-21T02:27:40.110Z,948.515625
2023-05-21T02:28:41.590Z,948.5415649
2023-05-21T02:29:42.576Z,948.5392456
2023-05-21T02:30:43.771Z,948.5189209
2023-05-21T02:31:44.763Z,948.5130615
2023-05-21T02:32:45.833Z,948.5275269
2023-05-21T02:33:46.788Z,948.524231
2023-05-21T02:34:48.229Z,948.5028076
2023-05-21T02:35:49.276Z,948.5026855
2023-05-21T02:36:50.282Z,948.4862671
2023-05-21T02:37:51.266Z,948.4876709
2023-05-21T02:38:52.388Z,948.4584961
2023-05-21T02:39:53.829Z,948.4735718
2023-05-21T02:40:54.766Z,948.4938965
2023-05-21T02:41:55.788Z,948.492981
2023-05-21T02:42:56.780Z,948.4979858
2023-05-21T02:43:57.877Z,948.4831543
2023-05-21T02:44:59.329Z,948.5010986
2023-05-21T02:46:00.373Z,948.4884644
2023-05-21T02:47:32.092Z,948.4556885
2023-05-21T02:48:33.072Z,948.4448242
2023-05-21T02:49:34.079Z,948.4473267
2023-05-21T02:50:35.107Z,948.4640503
2023-05-21T02:51:36.105Z,948.4654541
2023-05-21T02:52:37.110Z,948.4737549
2023-05-21T02:53:38.066Z,948.4712524
2023-05-21T02:54:39.127Z,948.4676514
2023-05-21T02:55:40.622Z,948.5036011
2023-05-21T02:56:41.553Z,948.5335083
2023-05-21T02:57:42.598Z,948.5084229
2023-05-21T02:58:43.790Z,948.53125
2023-05-21T02:59:44.906Z,948.5279541
2023-05-21T03:00:46.339Z,948.5116577
2023-05-21T03:01:47.438Z,948.5172119
2023-05-21T03:02:48.668Z,948.4570313
2023-05-21T03:03:49.810Z,948.4692993
2023-05-21T03:04:51.095Z,948.4904785
2023-05-21T03:05:52.342Z,948.4874878
2023-05-21T03:06:53.333Z,948.4776611
2023-05-21T03:07:54.467Z,948.4483643
2023-05-21T03:08:55.782Z,948.4678345
2023-05-21T03:09:57.076Z,948.4671631
2023-05-21T03:10:58.386Z,948.4841309
2023-05-21T03:11:59.278Z,948.454834
2023-05-21T03:13:00.339Z,948.4328003
2023-05-21T03:14:32.081Z,948.4459229
2023-05-21T03:15:33.072Z,948.4375
2023-05-21T03:16:34.118Z,948.4489136
2023-05-21T03:17:35.116Z,948.4489136
2023-05-21T03:18:36.142Z,948.4538574
2023-05-21T03:19:37.107Z,948.4545288
2023-05-21T03:20:38.062Z,948.4815674
2023-05-21T03:21:39.138Z,948.4788818
2023-05-21T03:22:40.591Z,948.4708862
2023-05-21T03:23:41.563Z,948.4545288
2023-05-21T03:24:42.562Z,948.4626465
2023-05-21T03:25:42.973Z,948.4593506
2023-05-21T03:26:44.433Z,948.4401855
2023-05-21T03:27:45.869Z,948.4434204
2023-05-21T03:28:47.322Z,948.4603271
2023-05-21T03:29:48.365Z,948.4879761
2023-05-21T03:30:49.339Z,948.473999
2023-05-21T03:31:50.422Z,948.5010376
2023-05-21T03:32:51.813Z,948.5058594
2023-05-21T03:33:53.272Z,948.526123
2023-05-21T03:34:54.290Z,948.5654907
2023-05-21T03:35:55.273Z,948.5686646
2023-05-21T03:36:56.616Z,948.5189209
2023-05-21T03:37:57.847Z,948.5384521
2023-05-21T03:38:58.810Z,948.5823364
2023-05-21T03:40:00.196Z,948.5756226
2023-05-21T03:41:31.540Z,948.6121826
2023-05-21T03:42:33.621Z,948.6137695
2023-05-21T03:43:34.581Z,948.5953369
2023-05-21T03:44:35.568Z,948.6408691
2023-05-21T03:45:36.877Z,948.6168823
2023-05-21T03:46:37.885Z,948.5772095
2023-05-21T03:47:38.727Z,948.6152954
2023-05-21T03:48:40.103Z,948.5948486
2023-05-21T03:49:41.079Z,948.585022
2023-05-21T03:50:42.123Z,948.612793
2023-05-21T03:51:43.111Z,948.6296997
2023-05-21T03:52:44.606Z,948.6183472
2023-05-21T03:53:45.601Z,948.6345825
2023-05-21T03:54:46.780Z,948.7062378
2023-05-21T03:55:47.877Z,948.6743774
2023-05-21T03:56:49.343Z,948.710144
2023-05-21T03:57:50.384Z,948.6922607
2023-05-21T03:58:51.331Z,948.7525024
2023-05-21T03:59:52.314Z,948.7670898
2023-05-21T04:00:53.315Z,948.7996826
2023-05-21T04:01:54.277Z,948.8078003
2023-05-21T04:02:55.531Z,948.7915649
2023-05-21T04:03:57.124Z,948.8078003
2023-05-21T04:04:58.313Z,948.7810669
2023-05-21T04:05:59.279Z,948.7915649
2023-05-21T04:07:01.105Z,948.8052368
2023-05-21T04:08:33.172Z,948.8150024
2023-05-21T04:09:36.530Z,948.8433838
2023-05-21T04:10:35.077Z,948.8833618
2023-05-21T04:11:36.078Z,948.8549805
2023-05-21T04:12:37.133Z,948.8865356
2023-05-21T04:13:38.122Z,948.8883057
2023-05-21T04:14:38.555Z,948.9273682
2023-05-21T04:15:39.964Z,948.9475098
2023-05-21T04:16:40.785Z,948.930481
2023-05-21T04:17:42.108Z,948.9584961
2023-05-21T04:18:45.533Z,948.9916382
2023-05-21T04:19:43.435Z,948.9974976
2023-05-21T04:20:43.862Z,948.9968262
2023-05-21T04:21:45.308Z,949.0072021
2023-05-21T04:22:45.736Z,949.0550537
2023-05-21T04:23:46.893Z,949.0339355
2023-05-21T04:24:47.819Z,949.0615845
2023-05-21T04:25:48.888Z,949.0843506
2023-05-21T04:26:50.283Z,949.0999756
2023-05-21T04:27:51.303Z,949.0830688
2023-05-21T04:28:52.462Z,949.114624
2023-05-21T04:29:53.798Z,949.1358032
2023-05-21T04:30:54.821Z,949.1464233
2023-05-21T04:31:55.822Z,949.1138916
2023-05-21T04:32:56.274Z,949.1450806
2023-05-21T04:33:56.843Z,949.0979004
2023-05-21T04:34:57.829Z,949.1281128
2023-05-21T04:35:58.846Z,949.1702881
2023-05-21T04:37:31.091Z,949.1835938
2023-05-21T04:38:32.085Z,949.1598511
2023-05-21T04:39:33.111Z,949.2160645
2023-05-21T04:40:36.812Z,949.2496338
2023-05-21T04:41:35.585Z,949.2349854
2023-05-21T04:42:36.589Z,949.2471924
2023-05-21T04:43:37.587Z,949.2481079
2023-05-21T04:44:38.636Z,949.2246704
2023-05-21T04:45:40.091Z,949.2424927
2023-05-21T04:46:41.885Z,949.2262573
2023-05-21T04:47:42.345Z,949.2492676
2023-05-21T04:48:43.445Z,949.2600098
2023-05-21T04:49:44.903Z,949.2410889
2023-05-21T04:50:46.351Z,949.2354736
2023-05-21T04:51:47.336Z,949.2321777
2023-05-21T04:52:48.602Z,949.2495117
2023-05-21T04:53:49.026Z,949.2240601
2023-05-21T04:54:50.419Z,949.2550049
2023-05-21T04:55:51.831Z,949.2054443
2023-05-21T04:56:53.094Z,949.2022095
2023-05-21T04:57:54.083Z,949.1793823
2023-05-21T04:58:55.079Z,949.2040405
2023-05-21T04:59:55.652Z,949.2033081
2023-05-21T05:00:56.935Z,949.1726685
2023-05-21T05:01:58.331Z,949.1867065
2023-05-21T05:03:30.596Z,949.2143555
2023-05-21T05:04:31.592Z,949.2331543
2023-05-21T05:05:32.732Z,949.2633667
2023-05-21T05:06:34.104Z,949.2789307
2023-05-21T05:07:35.612Z,949.2456055
2023-05-21T05:08:36.595Z,949.2718506
2023-05-21T05:09:37.588Z,949.2722168
2023-05-21T05:10:38.591Z,949.3170166
2023-05-21T05:11:40.128Z,949.2885742
2023-05-21T05:12:41.342Z,949.3016357
2023-05-21T05:13:42.589Z,949.3099976
2023-05-21T05:14:43.589Z,949.3417969
2023-05-21T05:15:44.603Z,949.2667847
2023-05-21T05:16:45.908Z,949.2807007
2023-05-21T05:17:47.427Z,949.2523193
2023-05-21T05:18:48.588Z,949.2516479
2023-05-21T05:19:49.821Z,949.2525024
2023-05-21T05:20:50.818Z,949.2478638
2023-05-21T05:21:51.872Z,949.2422485
2023-05-21T05:22:52.808Z,949.272522
2023-05-21T05:23:54.104Z,949.2804565
2023-05-21T05:24:55.092Z,949.288208
2023-05-21T05:25:56.127Z,949.286499
2023-05-21T05:26:57.458Z,949.2728271
2023-05-21T05:27:59.301Z,949.2918091
2023-05-21T05:29:31.593Z,949.2819824
2023-05-21T05:30:32.629Z,949.2828369
2023-05-21T05:31:33.130Z,949.2755737
2023-05-21T05:32:34.433Z,949.2751465
2023-05-21T05:33:35.858Z,949.2767334
2023-05-21T05:34:36.855Z,949.2948608
2023-05-21T05:35:38.720Z,949.2695923
2023-05-21T05:36:39.056Z,949.2803345
2023-05-21T05:37:40.395Z,949.3071899
2023-05-21T05:38:41.869Z,949.3081055
2023-05-21T05:39:42.793Z,949.2338257
2023-05-21T05:40:43.875Z,949.28125
2023-05-21T05:41:45.304Z,949.3000488
2023-05-21T05:42:45.784Z,949.2960815
2023-05-21T05:43:46.888Z,949.3459473
2023-05-21T05:44:48.309Z,949.3670044
2023-05-21T05:45:49.362Z,949.3328247
2023-05-21T05:46:50.342Z,949.3018799
2023-05-21T05:47:51.365Z,949.2767334
2023-05-21T05:48:52.355Z,949.2578125
2023-05-21T05:49:53.340Z,949.2808838
2023-05-21T05:50:54.327Z,949.2984619
2023-05-21T05:51:55.318Z,949.333252
2023-05-21T05:52:56.356Z,949.2754517
2023-05-21T05:53:57.645Z,949.3129883
2023-05-21T05:54:59.117Z,949.3449707
2023-05-21T05:56:31.092Z,949.2970581
2023-05-21T05:57:31.546Z,949.2913818
2023-05-21T05:58:32.867Z,949.2620239
2023-05-21T05:59:34.606Z,949.2597046
2023-05-21T06:00:35.614Z,949.2770386
2023-05-21T06:01:36.608Z,949.2536011
2023-05-21T06:02:37.142Z,949.2665405
2023-05-21T06:03:38.675Z,949.2998657
2023-05-21T06:04:39.689Z,949.3222046
2023-05-21T06:05:41.163Z,949.324707
2023-05-21T06:06:42.098Z,949.3264771
2023-05-21T06:07:43.120Z,949.3297119
2023-05-21T06:08:44.336Z,949.2932739
2023-05-21T06:09:45.386Z,949.3537598
2023-05-21T06:10:46.847Z,949.3317261
2023-05-21T06:11:47.827Z,949.3032837
2023-05-21T06:12:48.828Z,949.3637695
2023-05-21T06:13:50.094Z,949.3978271
2023-05-21T06:14:51.086Z,949.352417
2023-05-21T06:15:51.622Z,949.3323364
2023-05-21T06:16:52.911Z,949.2949829
2023-05-21T06:17:54.386Z,949.3071899
2023-05-21T06:18:55.375Z,949.2959595
2023-05-21T06:19:56.319Z,949.3156128
2023-05-21T06:20:57.379Z,949.3166504
2023-05-21T06:22:29.590Z,949.2751465
2023-05-21T06:23:30.658Z,949.2979736
2023-05-21T06:24:31.646Z,949.2629395
2023-05-21T06:25:32.617Z,949.2518921
2023-05-21T06:26:33.093Z,949.2445068
2023-05-21T06:27:35.101Z,949.2233887
2023-05-21T06:28:36.113Z,949.1911621
2023-05-21T06:29:37.102Z,949.2277832
2023-05-21T06:30:38.604Z,949.2539063
2023-05-21T06:31:40.104Z,949.251709
2023-05-21T06:32:41.219Z,949.2459106
2023-05-21T06:33:42.383Z,949.2675171
2023-05-21T06:34:43.592Z,949.2626343
2023-05-21T06:35:45.121Z,949.2894287
2023-05-21T06:36:46.632Z,949.2937622
2023-05-21T06:37:47.825Z,949.3005371
2023-05-21T06:38:48.843Z,949.291748
2023-05-21T06:39:49.814Z,949.2833862
2023-05-21T06:40:50.858Z,949.2924805
2023-05-21T06:41:51.849Z,949.3043823
2023-05-21T06:42:52.832Z,949.2929688
2023-05-21T06:43:53.853Z,949.2440796
2023-05-21T06:44:55.101Z,949.2474976
2023-05-21T06:45:56.396Z,949.2647705
2023-05-21T06:46:57.338Z,949.2402954
2023-05-21T06:47:59.141Z,949.2159424
2023-05-21T06:49:30.464Z,949.1768188
2023-05-21T06:50:31.809Z,949.1810913
2023-05-21T06:51:32.908Z,949.1925049
2023-05-21T06:52:34.327Z,949.2023315
2023-05-21T06:53:35.317Z,949.208374
2023-05-21T06:54:36.339Z,949.194397
2023-05-21T06:55:37.799Z,949.2001343
2023-05-21T06:56:38.968Z,949.1960449
2023-05-21T06:57:40.357Z,949.1634521
2023-05-21T06:58:41.377Z,949.1603394
2023-05-21T06:59:42.335Z,949.1535645
2023-05-21T07:00:43.632Z,949.1847534
2023-05-21T07:01:44.908Z,949.225647
2023-05-21T07:02:45.959Z,949.2355347
2023-05-21T07:03:46.920Z,949.2258301
2023-05-21T07:04:47.844Z,949.1964111
2023-05-21T07:05:48.232Z,949.2249756
2023-05-21T07:06:48.700Z,949.2313843
2023-05-21T07:07:49.802Z,949.2331543
2023-05-21T07:08:51.079Z,949.2545166
2023-05-21T07:09:52.091Z,949.2463379
2023-05-21T07:10:52.549Z,949.255127
2023-05-21T07:11:53.816Z,949.2503052
2023-05-21T07:12:54.850Z,949.272583
2023-05-21T07:13:55.826Z,949.2357788
2023-05-21T07:14:58.152Z,949.3012695
2023-05-21T07:16:29.164Z,949.2709351
2023-05-21T07:17:30.115Z,949.2603149
2023-05-21T07:18:31.085Z,949.2718506
2023-05-21T07:19:31.628Z,949.2952881
2023-05-21T07:20:32.906Z,949.3117676
2023-05-21T07:21:34.668Z,949.2718506
2023-05-21T07:22:35.101Z,949.274231
2023-05-21T07:23:35.532Z,949.2717285
2023-05-21T07:24:36.604Z,949.2619629
2023-05-21T07:25:37.892Z,949.2416992
2023-05-21T07:26:38.114Z,949.2401733
2023-05-21T07:27:39.308Z,949.2704468
2023-05-21T07:28:40.332Z,949.2189941
2023-05-21T07:29:41.326Z,949.178894
2023-05-21T07:30:42.382Z,949.1862793
2023-05-21T07:31:43.634Z,949.1885986
2023-05-21T07:32:44.822Z,949.2294312
2023-05-21T07:33:45.842Z,949.1953125
2023-05-21T07:34:46.813Z,949.2045898
2023-05-21T07:35:47.852Z,949.1945801
2023-05-21T07:36:48.795Z,949.1931763
2023-05-21T07:37:49.826Z,949.1727905
2023-05-21T07:38:50.812Z,949.1481934
2023-05-21T07:39:51.867Z,949.1696167
2023-05-21T07:40:52.851Z,949.1956177
2023-05-21T07:41:54.106Z,949.1972046
2023-05-21T07:42:55.107Z,949.1687622
2023-05-21T07:43:56.118Z,949.1808472
2023-05-21T07:44:56.541Z,949.1206055
2023-05-21T07:46:28.688Z,949.1049805
2023-05-21T07:47:29.034Z,949.104248
2023-05-21T07:48:32.168Z,949.0901489
2023-05-21T07:49:32.105Z,949.0371704
2023-05-21T07:50:33.084Z,949.0941162
2023-05-21T07:51:34.126Z,949.072998
2023-05-21T07:52:34.544Z,949.1310425
2023-05-21T07:53:34.966Z,949.1277466
2023-05-21T07:54:36.108Z,949.1046753
2023-05-21T07:55:37.350Z,949.0993042
2023-05-21T07:56:38.124Z,949.0795288
2023-05-21T07:57:39.131Z,949.0476685
2023-05-21T07:58:40.098Z,949.0409546
2023-05-21T07:59:40.513Z,949.0793457
2023-05-21T08:00:41.787Z,949.1102905
2023-05-21T08:01:42.849Z,949.0697021
2023-05-21T08:02:44.058Z,949.0900269
2023-05-21T08:03:45.066Z,949.1143799
2023-05-21T08:04:45.966Z,949.1383057
2023-05-21T08:05:46.822Z,949.1309204
2023-05-21T08:06:47.837Z,949.1218872
2023-05-21T08:07:48.876Z,949.1063843
2023-05-21T08:08:49.822Z,949.0874023
2023-05-21T08:09:50.866Z,949.069519
2023-05-21T08:10:52.289Z,949.0753174
2023-05-21T08:11:53.356Z,949.0180664
2023-05-21T08:12:54.336Z,949.0359497
2023-05-21T08:13:54.747Z,949.0678101
2023-05-21T08:14:55.818Z,949.052002
2023-05-21T08:16:28.215Z,949.0715332
2023-05-21T08:17:29.233Z,949.0543823
2023-05-21T08:18:30.135Z,949.0656128
2023-05-21T08:19:31.239Z,949.0665894
2023-05-21T08:20:32.105Z,949.0656128
2023-05-21T08:21:32.527Z,949.0957642
2023-05-21T08:22:34.620Z,949.0836182
2023-05-21T08:23:35.635Z,949.06073
2023-05-21T08:24:36.054Z,949.0822144
2023-05-21T08:25:38.348Z,949.0466919
2023-05-21T08:26:38.517Z,949.0476685
2023-05-21T08:27:39.859Z,949.1228027
2023-05-21T08:28:40.895Z,949.0393677
2023-05-21T08:29:42.336Z,949.0866699
2023-05-21T08:30:43.636Z,949.1112671
2023-05-21T08:31:44.980Z,949.0987549
2023-05-21T08:32:46.417Z,949.1045532
2023-05-21T08:33:47.343Z,949.1289063
2023-05-21T08:34:48.347Z,949.1296997
2023-05-21T08:35:48.854Z,949.1516113
2023-05-21T08:36:49.848Z,949.1490479
2023-05-21T08:37:50.916Z,949.1334229
2023-05-21T08:38:51.848Z,949.1196899
2023-05-21T08:39:52.874Z,949.1439209
2023-05-21T08:40:53.871Z,949.1356201
2023-05-21T08:41:54.809Z,949.0921631
2023-05-21T08:42:55.869Z,949.1557617
2023-05-21T08:44:28.126Z,949.1426392
2023-05-21T08:45:29.162Z,949.1726685
2023-05-21T08:46:30.673Z,949.1482544
2023-05-21T08:47:31.115Z,949.1791992
2023-05-21T08:48:31.580Z,949.182373
2023-05-21T08:49:32.605Z,949.1676636
2023-05-21T08:50:33.625Z,949.1738892
2023-05-21T08:51:34.603Z,949.1779175
2023-05-21T08:52:35.033Z,949.1698608
2023-05-21T08:53:36.379Z,949.1761475
2023-05-21T08:54:37.640Z,949.1409302
2023-05-21T08:55:38.770Z,949.2129517
2023-05-21T08:56:40.102Z,949.1925049
2023-05-21T08:57:40.532Z,949.2113037
2023-05-21T08:58:41.840Z,949.1506348
2023-05-21T08:59:42.827Z,949.1662598
2023-05-21T09:00:43.824Z,949.199707
2023-05-21T09:01:44.922Z,949.1947021
2023-05-21T09:02:45.896Z,949.2047119
2023-05-21T09:03:47.387Z,949.1489258
2023-05-21T09:04:48.379Z,949.2349854
2023-05-21T09:05:49.349Z,949.182373
2023-05-21T09:06:50.360Z,949.2388916
2023-05-21T09:07:52.585Z,949.1956177
2023-05-21T09:08:52.849Z,949.1871948
2023-05-21T09:09:53.858Z,949.1734619
2023-05-21T09:10:54.818Z,949.1749268
2023-05-21T09:11:55.860Z,949.1494751
2023-05-21T09:13:27.609Z,949.1397095
2023-05-21T09:14:28.042Z,949.1182861
2023-05-21T09:15:28.607Z,949.1541138
2023-05-21T09:16:29.644Z,949.0639648
2023-05-21T09:17:30.830Z,949.093689
2023-05-21T09:18:32.132Z,949.0928955
2023-05-21T09:19:32.735Z,949.064209
2023-05-21T09:20:33.624Z,949.0960083
2023-05-21T09:21:34.637Z,949.0966187
2023-05-21T09:22:35.731Z,949.1130981
2023-05-21T09:23:37.126Z,949.0720215
2023-05-21T09:24:38.120Z,949.0939331
2023-05-21T09:25:39.899Z,949.0974731
2023-05-21T09:26:40.118Z,949.093811
2023-05-21T09:27:41.347Z,949.0831909
2023-05-21T09:28:42.394Z,949.0904541
2023-05-21T09:29:43.659Z,949.1257324
2023-05-21T09:30:44.854Z,949.1116943
2023-05-21T09:31:45.891Z,949.0708008
2023-05-21T09:32:46.896Z,949.1306152
2023-05-21T09:33:47.832Z,949.0887451
2023-05-21T09:34:48.847Z,949.1010132
2023-05-21T09:35:49.845Z,949.0689697
2023-05-21T09:36:50.855Z,949.0551758
2023-05-21T09:37:51.815Z,949.0380249
2023-05-21T09:38:53.114Z,949.0601807
2023-05-21T09:39:54.159Z,949.0557861
2023-05-21T09:40:54.597Z,949.0551758
2023-05-21T09:41:55.007Z,948.998291
2023-05-21T09:43:27.144Z,949.0222168
2023-05-21T09:44:27.613Z,949.0031128
2023-05-21T09:45:28.858Z,948.9342041
2023-05-21T09:46:30.024Z,948.9547729
2023-05-21T09:47:32.171Z,948.967041
2023-05-21T09:48:32.582Z,948.9626465
2023-05-21T09:49:33.864Z,948.9718628
2023-05-21T09:50:35.861Z,948.9561157
2023-05-21T09:51:36.704Z,948.9421387
2023-05-21T09:52:40.081Z,948.9182739
2023-05-21T09:53:39.150Z,948.9533691
2023-05-21T09:54:40.131Z,948.9442749
2023-05-21T09:55:41.158Z,948.9564819
2023-05-21T09:56:41.698Z,948.9746704
2023-05-21T09:57:42.891Z,948.9483032
2023-05-21T09:58:43.948Z,948.9268799
2023-05-21T09:59:45.355Z,948.984314
2023-05-21T10:00:46.629Z,948.9710693
2023-05-21T10:01:47.918Z,948.9676514
2023-05-21T10:02:49.035Z,949.005249
2023-05-21T10:03:50.845Z,948.9665527
2023-05-21T10:04:51.366Z,949.0091553
2023-05-21T10:05:52.318Z,948.9957886
2023-05-21T10:06:53.404Z,948.9555664
2023-05-21T10:07:54.439Z,948.9129639
2023-05-21T10:09:26.634Z,948.923584
2023-05-21T10:10:27.129Z,948.9260254
2023-05-21T10:11:27.570Z,948.9134521
2023-05-21T10:12:28.055Z,948.8634644
2023-05-21T10:13:29.357Z,948.8724976
2023-05-21T10:14:30.379Z,948.8895264
2023-05-21T10:15:31.384Z,948.9017334
2023-05-21T10:16:32.452Z,948.8713989
2023-05-21T10:17:33.990Z,948.9081421
2023-05-21T10:18:35.376Z,948.894043
2023-05-21T10:19:36.426Z,948.9348145
2023-05-21T10:20:37.282Z,948.9001465
2023-05-21T10:21:37.397Z,948.8867188
2023-05-21T10:22:38.898Z,948.8881226
2023-05-21T10:23:40.174Z,948.8510742
2023-05-21T10:24:40.671Z,948.8306274
2023-05-21T10:25:41.639Z,948.7990112
2023-05-21T10:26:42.650Z,948.7676392
2023-05-21T10:27:43.886Z,948.7376709
2023-05-21T10:28:44.950Z,948.7628174
2023-05-21T10:29:46.435Z,948.699707
2023-05-21T10:30:47.864Z,948.6812744
2023-05-21T10:31:48.871Z,948.7253418
2023-05-21T10:32:50.056Z,948.7686768
2023-05-21T10:33:50.406Z,948.7190552
2023-05-21T10:34:51.913Z,948.7589111
2023-05-21T10:35:53.369Z,948.7323608
2023-05-21T10:36:54.374Z,948.6942139
2023-05-21T10:38:26.740Z,948.7234497
2023-05-21T10:39:28.161Z,948.6698608
2023-05-21T10:40:29.130Z,948.689209
2023-05-21T10:41:30.141Z,948.6782837
2023-05-21T10:42:31.134Z,948.6445313
2023-05-21T10:43:32.146Z,948.6456909
2023-05-21T10:44:32.742Z,948.6576538
2023-05-21T10:45:33.916Z,948.6729736
2023-05-21T10:46:34.883Z,948.7078247
2023-05-21T10:47:36.220Z,948.6793823
2023-05-21T10:48:37.188Z,948.6513062
2023-05-21T10:49:37.738Z,948.6835327
2023-05-21T10:50:39.247Z,948.6642456
2023-05-21T10:51:40.395Z,948.6286621
2023-05-21T10:52:41.396Z,948.6300049
2023-05-21T10:53:42.903Z,948.6315918
2023-05-21T10:54:43.994Z,948.6576538
2023-05-21T10:55:45.159Z,948.6908569
2023-05-21T10:56:46.169Z,948.6473389
2023-05-21T10:57:47.137Z,948.6642456
2023-05-21T10:58:48.135Z,948.6286011
2023-05-21T10:59:49.455Z,948.6260986
2023-05-21T11:00:51.027Z,948.6323242
2023-05-21T11:01:52.415Z,948.6088867
2023-05-21T11:02:53.502Z,948.6079712
2023-05-21T11:03:54.689Z,948.5974731
2023-05-21T11:05:25.566Z,948.6347046
2023-05-21T11:06:26.102Z,948.5826416
2023-05-21T11:07:27.377Z,948.5658569
2023-05-21T11:08:28.641Z,948.6272583
2023-05-21T11:09:29.655Z,948.6119385
2023-05-21T11:10:30.370Z,948.6051636
2023-05-21T11:11:31.439Z,948.6063843
2023-05-21T11:12:33.637Z,948.5617065